Time;durP1;ratioP1;P1;durP2;ratioP2;P2;SDS_P1;SDS_P2;PMS_P1;PMS_P2;Temp;Humidity;BMP_temperature;BMP_pressure;BME280_temperature;BME280_humidity;BME280_pressure;Samples;Min_cycle;Max_cycle;Signal;HPM_P1;HPM_P2
2022/04/23 00:01:59;;;;;;;93.30;14.25;;;14.10;99.90;;;;;;4885171;29;20115;-85
2022/04/23 00:04:36;;;;;;;84.28;13.30;;;14.10;99.90;;;;;;4880358;29;20112;-84
2022/04/23 00:07:05;;;;;;;78.78;12.18;;;14.00;99.90;;;;;;4885166;29;20039;-85
2022/04/23 00:09:33;;;;;;;98.35;12.43;;;14.00;99.90;;;;;;4884991;29;20364;-84
2022/04/23 00:12:01;;;;;;;88.00;13.60;;;13.90;99.90;;;;;;4895961;29;20041;-85
2022/04/23 00:14:28;;;;;;;84.40;12.85;;;14.00;99.90;;;;;;4880904;29;20056;-84
2022/04/23 00:16:57;;;;;;;104.57;13.40;;;14.00;99.90;;;;;;4884767;29;20032;-84
2022/04/23 00:19:30;;;;;;;86.20;13.75;;;14.00;99.90;;;;;;4869129;29;20032;-85
2022/04/23 00:22:03;;;;;;;81.75;11.82;;;14.00;99.90;;;;;;4884732;29;20486;-84
2022/04/23 00:24:30;;;;;;;72.63;11.35;;;14.00;99.90;;;;;;4884667;29;20048;-84
2022/04/23 00:26:57;;;;;;;78.38;10.93;;;13.90;99.90;;;;;;4869214;29;20033;-85
2022/04/23 00:29:24;;;;;;;87.05;11.40;;;13.90;99.90;;;;;;4884463;29;20033;-85
2022/04/23 00:31:50;;;;;;;86.82;12.70;;;13.90;99.90;;;;;;4869115;29;20443;-85
2022/04/23 00:34:17;;;;;;;77.68;12.02;;;13.90;99.90;;;;;;4884399;29;20032;-85
2022/04/23 00:36:46;;;;;;;77.93;12.65;;;14.00;99.90;;;;;;4885444;29;20517;-84
2022/04/23 00:39:12;;;;;;;66.70;11.27;;;13.90;99.90;;;;;;4884385;29;20045;-84
2022/04/23 00:41:46;;;;;;;73.80;11.68;;;13.90;99.90;;;;;;4884138;29;20029;-85
2022/04/23 00:44:14;;;;;;;74.05;10.48;;;13.80;99.90;;;;;;4884470;29;20035;-85
2022/04/23 00:46:43;;;;;;;61.17;9.15;;;13.80;99.90;;;;;;4884233;29;20040;-84
2022/04/23 00:49:13;;;;;;;70.75;10.35;;;13.80;99.90;;;;;;4884066;29;20032;-84
2022/04/23 00:51:42;;;;;;;74.72;10.85;;;13.90;99.90;;;;;;4884204;29;20111;-85
2022/04/23 00:54:10;;;;;;;56.47;8.50;;;13.80;99.90;;;;;;4884018;29;20056;-84
2022/04/23 00:56:39;;;;;;;48.15;8.57;;;13.90;99.90;;;;;;4883784;29;20048;-84
2022/04/23 00:59:11;;;;;;;57.85;10.45;;;13.90;99.90;;;;;;4884003;29;20040;-84
2022/04/23 01:01:43;;;;;;;60.53;12.25;;;13.90;99.90;;;;;;4864974;29;20048;-85
2022/04/23 01:04:12;;;;;;;75.63;13.73;;;13.80;99.90;;;;;;4849566;29;20419;-85
2022/04/23 01:06:43;;;;;;;71.45;12.75;;;13.70;99.90;;;;;;4864901;29;20045;-84
2022/04/23 01:09:12;;;;;;;56.13;10.10;;;13.80;99.90;;;;;;4864602;29;20427;-85
2022/04/23 01:11:42;;;;;;;57.33;10.32;;;13.80;99.90;;;;;;4849253;29;20423;-85
2022/04/23 01:14:10;;;;;;;46.10;9.05;;;13.80;99.90;;;;;;4864547;29;20033;-84
2022/04/23 01:16:37;;;;;;;48.95;9.45;;;13.70;99.90;;;;;;4849267;29;20064;-85
2022/04/23 01:19:04;;;;;;;41.35;8.65;;;13.70;99.90;;;;;;4849127;29;20036;-85
2022/04/23 01:21:31;;;;;;;40.28;8.15;;;13.80;99.90;;;;;;4864420;29;20045;-84
2022/04/23 01:24:02;;;;;;;43.10;8.75;;;13.80;99.90;;;;;;4848888;29;20029;-84
2022/04/23 01:26:31;;;;;;;47.95;7.05;;;13.80;99.90;;;;;;4864299;29;20051;-85
2022/04/23 01:29:00;;;;;;;35.85;6.93;;;13.70;99.90;;;;;;4848815;29;20025;-84
2022/04/23 01:31:27;;;;;;;41.25;7.65;;;13.70;99.90;;;;;;4864534;29;20115;-84
2022/04/23 01:33:55;;;;;;;55.53;7.65;;;13.70;99.90;;;;;;4883359;29;20100;-84
2022/04/23 01:36:22;;;;;;;53.10;9.23;;;13.70;99.90;;;;;;4899149;29;20032;-85
2022/04/23 01:38:49;;;;;;;50.80;9.32;;;13.70;99.90;;;;;;4867894;29;20032;-85
2022/04/23 01:41:25;;;;;;;65.25;9.70;;;13.60;99.90;;;;;;4883128;29;20066;-85
2022/04/23 01:43:57;;;;;;;41.30;9.50;;;13.70;99.90;;;;;;4883389;29;20028;-85
2022/04/23 01:46:24;;;;;;;51.53;9.80;;;13.70;99.90;;;;;;4883215;29;20116;-85
2022/04/23 01:48:51;;;;;;;54.30;9.05;;;13.70;99.90;;;;;;4882629;29;20024;-85
2022/04/23 01:51:18;;;;;;;59.15;9.45;;;13.60;99.90;;;;;;4883170;29;20028;-85
2022/04/23 01:53:44;;;;;;;40.60;9.00;;;13.60;99.90;;;;;;4867639;29;20036;-85
2022/04/23 01:56:11;;;;;;;55.95;9.32;;;13.60;99.90;;;;;;4867450;29;20028;-86
2022/04/23 01:58:38;;;;;;;54.10;10.23;;;13.60;99.90;;;;;;4883018;29;20097;-84
2022/04/23 02:01:08;;;;;;;59.42;10.23;;;13.60;99.90;;;;;;4867448;29;20096;-83
2022/04/23 02:03:38;;;;;;;54.83;10.00;;;13.60;99.90;;;;;;4882753;29;20028;-85
2022/04/23 02:06:06;;;;;;;55.78;9.60;;;13.60;99.90;;;;;;4882826;29;20443;-85
2022/04/23 02:08:32;;;;;;;46.42;9.70;;;13.70;99.90;;;;;;4867279;29;20024;-84
2022/04/23 02:10:59;;;;;;;62.72;10.48;;;13.60;99.90;;;;;;4882899;29;20032;-84
2022/04/23 02:13:27;;;;;;;57.28;10.27;;;13.70;99.90;;;;;;4882729;29;20035;-84
2022/04/23 02:15:57;;;;;;;57.25;10.63;;;13.70;99.90;;;;;;4867129;29;20040;-84
2022/04/23 02:18:28;;;;;;;50.58;9.52;;;13.60;99.90;;;;;;4882499;29;20045;-85
2022/04/23 02:20:55;;;;;;;48.80;8.15;;;13.60;99.90;;;;;;4881360;29;20076;-85
2022/04/23 02:23:22;;;;;;;40.67;7.75;;;13.70;99.90;;;;;;4882603;29;20479;-84
2022/04/23 02:25:48;;;;;;;45.53;7.47;;;13.60;99.90;;;;;;4882636;29;20032;-85
2022/04/23 02:28:15;;;;;;;54.10;9.32;;;13.60;99.90;;;;;;4882744;29;20400;-85
2022/04/23 02:30:42;;;;;;;42.13;8.38;;;13.50;99.90;;;;;;4882514;29;20116;-85
2022/04/23 02:33:09;;;;;;;44.67;8.93;;;13.60;99.90;;;;;;4867146;29;20029;-85
2022/04/23 02:35:36;;;;;;;38.83;7.47;;;13.70;99.90;;;;;;4867145;29;20033;-85
2022/04/23 02:38:03;;;;;;;42.65;7.40;;;13.70;99.90;;;;;;4866903;29;20025;-85
2022/04/23 02:40:29;;;;;;;38.03;7.70;;;13.70;99.90;;;;;;4882470;29;20036;-84
2022/04/23 02:42:57;;;;;;;45.13;8.05;;;13.70;99.90;;;;;;4882315;29;20479;-86
2022/04/23 02:45:25;;;;;;;32.72;8.00;;;13.70;99.90;;;;;;4882739;29;20044;-85
2022/04/23 02:47:54;;;;;;;37.35;6.80;;;13.70;99.90;;;;;;4882287;29;20032;-85
2022/04/23 02:50:30;;;;;;;42.15;7.43;;;13.70;99.90;;;;;;4882403;29;20059;-85
2022/04/23 02:52:59;;;;;;;39.05;7.35;;;13.70;99.90;;;;;;4882233;29;20029;-85
2022/04/23 02:55:28;;;;;;;39.47;7.68;;;13.60;99.90;;;;;;4866844;29;20099;-85
2022/04/23 02:57:58;;;;;;;37.22;7.30;;;13.60;99.90;;;;;;4882136;29;20059;-85
2022/04/23 03:00:24;;;;;;;41.78;7.15;;;13.70;99.90;;;;;;4882219;29;20040;-85
2022/04/23 03:02:52;;;;;;;36.58;7.20;;;13.70;99.90;;;;;;4870505;29;20032;-85
2022/04/23 03:05:18;;;;;;;33.75;7.45;;;13.70;99.90;;;;;;4870536;29;20032;-85
2022/04/23 03:07:45;;;;;;;50.13;7.82;;;13.70;99.90;;;;;;4870456;29;20028;-85
2022/04/23 03:10:16;;;;;;;50.17;7.65;;;13.80;99.90;;;;;;4870592;29;20040;-85
2022/04/23 03:12:43;;;;;;;38.40;7.25;;;13.80;99.90;;;;;;4901460;29;20025;-85
2022/04/23 03:15:16;;;;;;;32.97;8.63;;;13.80;99.90;;;;;;4885727;29;20040;-85
2022/04/23 03:17:45;;;;;;;45.13;9.70;;;13.80;99.90;;;;;;4885835;29;20033;-85
2022/04/23 03:20:13;;;;;;;62.65;16.75;;;13.70;99.90;;;;;;4885870;29;20033;-85
2022/04/23 03:22:42;;;;;;;71.82;22.58;;;13.80;99.90;;;;;;4885815;29;20033;-85
2022/04/23 03:25:11;;;;;;;81.47;22.30;;;13.70;99.90;;;;;;4870360;29;20117;-85
2022/04/23 03:27:38;;;;;;;73.47;19.95;;;13.70;99.90;;;;;;4885706;29;20439;-85
2022/04/23 03:30:06;;;;;;;59.50;19.40;;;13.70;99.90;;;;;;4885511;29;20115;-85
2022/04/23 03:32:32;;;;;;;58.50;17.13;;;13.70;99.90;;;;;;4885505;29;20102;-85
2022/04/23 03:35:01;;;;;;;66.80;15.20;;;13.70;99.90;;;;;;4870001;29;20084;-84
2022/04/23 03:37:28;;;;;;;47.75;14.43;;;13.70;99.90;;;;;;4870052;29;20032;-84
2022/04/23 03:39:54;;;;;;;48.33;13.15;;;13.70;99.90;;;;;;4869927;29;20056;-85
2022/04/23 03:42:21;;;;;;;40.13;10.63;;;13.70;99.90;;;;;;4885423;29;20048;-85
2022/04/23 03:44:47;;;;;;;42.55;10.65;;;13.60;99.90;;;;;;4869868;29;20088;-85
2022/04/23 03:47:15;;;;;;;31.80;9.65;;;13.50;99.90;;;;;;4869816;29;20025;-84
2022/04/23 03:49:43;;;;;;;33.75;9.32;;;13.50;99.90;;;;;;4900848;29;20025;-84
2022/04/23 03:52:12;;;;;;;23.58;6.97;;;13.50;99.90;;;;;;4869742;29;20120;-85
2022/04/23 03:54:39;;;;;;;25.92;6.72;;;13.40;99.90;;;;;;4869796;29;20028;-84
2022/04/23 03:57:06;;;;;;;27.92;7.28;;;13.40;99.90;;;;;;4862098;29;20065;-84
2022/04/23 03:59:32;;;;;;;35.20;7.53;;;13.40;99.90;;;;;;4881816;29;20045;-84
2022/04/23 04:02:04;;;;;;;23.17;6.45;;;13.40;99.90;;;;;;4866543;29;20057;-85
2022/04/23 04:04:32;;;;;;;27.20;5.80;;;13.40;99.90;;;;;;4866436;29;20029;-84
2022/04/23 04:07:00;;;;;;;16.63;5.40;;;13.40;99.90;;;;;;4866098;29;20036;-84
2022/04/23 04:09:27;;;;;;;23.70;6.25;;;13.40;99.90;;;;;;4866218;29;20033;-83
2022/04/23 04:12:08;;;;;;;21.80;5.00;;;13.40;99.90;;;;;;4865851;29;20136;-84
2022/04/23 04:14:42;;;;;;;19.67;4.97;;;13.30;99.90;;;;;;4866315;29;20519;-83
2022/04/23 04:17:11;;;;;;;14.38;3.83;;;13.30;99.90;;;;;;4865965;29;20037;-86
2022/04/23 04:19:44;;;;;;;14.88;3.28;;;13.30;99.90;;;;;;4866049;29;20037;-84
2022/04/23 04:22:11;;;;;;;13.88;3.08;;;13.40;99.90;;;;;;4866024;29;20025;-84
2022/04/23 04:24:38;;;;;;;11.15;2.40;;;13.40;99.90;;;;;;4865892;29;20088;-87
2022/04/23 04:27:06;;;;;;;12.13;1.90;;;13.50;99.90;;;;;;4866217;29;20080;-85
2022/04/23 04:29:33;;;;;;;10.75;2.28;;;13.50;99.90;;;;;;4850141;29;20041;-84
2022/04/23 04:32:00;;;;;;;8.57;1.60;;;13.60;99.90;;;;;;4881150;29;20121;-85
2022/04/23 04:34:32;;;;;;;14.93;2.35;;;13.60;99.90;;;;;;4865242;29;20039;-85
2022/04/23 04:37:27;;;;;;;8.18;2.20;;;13.70;99.90;;;;;;4865432;29;20497;-85
2022/04/23 04:39:53;;;;;;;;;;;13.70;99.90;;;;;;4863774;29;20049;-85
2022/04/23 04:42:20;;;;;;;8.88;1.85;;;13.70;99.90;;;;;;4880618;29;19912;-84
2022/04/23 04:44:55;;;;;;;8.82;1.63;;;13.70;99.90;;;;;;4865125;29;20072;-85
2022/04/23 04:47:22;;;;;;;12.00;2.00;;;13.70;99.90;;;;;;4865186;29;20033;-84
2022/04/23 04:49:51;;;;;;;12.35;1.90;;;13.80;99.90;;;;;;4880660;29;20040;-84
2022/04/23 04:52:18;;;;;;;8.85;1.70;;;13.90;99.90;;;;;;4880393;29;20500;-84
2022/04/23 04:54:54;;;;;;;10.63;1.70;;;13.90;99.90;;;;;;4865074;29;20036;-85
2022/04/23 04:57:21;;;;;;;6.65;1.80;;;14.00;99.90;;;;;;4864973;29;20140;-84
2022/04/23 04:59:47;;;;;;;12.63;1.60;;;14.10;99.90;;;;;;4864854;29;20041;-84
2022/04/23 05:02:13;;;;;;;11.35;1.77;;;14.20;99.90;;;;;;4880343;29;20448;-85
2022/04/23 05:04:40;;;;;;;11.82;1.50;;;14.20;99.90;;;;;;4864938;29;20120;-85
2022/04/23 05:07:06;;;;;;;11.05;1.48;;;14.20;99.90;;;;;;4865140;29;20029;-86
2022/04/23 05:09:33;;;;;;;10.55;1.40;;;14.30;99.90;;;;;;4880131;29;20032;-84
2022/04/23 05:11:59;;;;;;;7.68;1.70;;;14.50;99.90;;;;;;4864794;29;20028;-85
2022/04/23 05:14:26;;;;;;;9.30;1.40;;;14.60;99.90;;;;;;4880061;29;20040;-85
2022/04/23 05:16:52;;;;;;;8.80;1.70;;;14.80;99.90;;;;;;4864760;29;20479;-85
2022/04/23 05:19:20;;;;;;;9.98;1.95;;;14.90;99.90;;;;;;4880164;29;20479;-84
2022/04/23 05:21:50;;;;;;;9.52;1.67;;;15.00;99.90;;;;;;4864610;29;20033;-85
2022/04/23 05:24:16;;;;;;;11.00;2.17;;;15.10;99.90;;;;;;4864093;29;20044;-84
2022/04/23 05:26:43;;;;;;;11.73;1.73;;;15.10;99.90;;;;;;4879845;29;20037;-84
2022/04/23 05:29:09;;;;;;;14.85;1.60;;;15.20;99.90;;;;;;4864140;29;20096;-85
2022/04/23 05:31:38;;;;;;;14.75;1.70;;;15.30;99.90;;;;;;4864457;29;20036;-85
2022/04/23 05:34:05;;;;;;;8.55;1.58;;;15.40;99.90;;;;;;4864458;29;20036;-85
2022/04/23 05:36:32;;;;;;;7.43;1.30;;;15.50;99.90;;;;;;4864407;29;20033;-85
2022/04/23 05:38:59;;;;;;;9.45;1.73;;;15.60;99.90;;;;;;4864665;29;20505;-85
2022/04/23 05:41:25;;;;;;;11.30;1.30;;;15.70;99.90;;;;;;4864202;29;20072;-85
2022/04/23 05:43:52;;;;;;;9.70;1.70;;;15.80;99.90;;;;;;4864124;29;20033;-86
2022/04/23 05:46:21;;;;;;;7.82;1.60;;;15.80;99.90;;;;;;4864119;29;20045;-86
2022/04/23 05:48:51;;;;;;;10.43;1.40;;;16.00;99.90;;;;;;4879464;29;20037;-85
2022/04/23 05:51:17;;;;;;;9.65;1.60;;;16.10;99.90;;;;;;4864190;29;20040;-85
2022/04/23 05:53:44;;;;;;;14.68;2.67;;;16.20;99.90;;;;;;4879391;29;20453;-85
2022/04/23 05:56:10;;;;;;;15.18;3.28;;;16.40;99.90;;;;;;4864135;29;20128;-86
2022/04/23 05:58:37;;;;;;;9.90;2.60;;;16.70;99.90;;;;;;4867115;29;20468;-85
2022/04/23 06:01:10;;;;;;;8.85;3.50;;;16.80;99.90;;;;;;4882481;29;20040;-86
2022/04/23 06:03:36;;;;;;;20.35;5.78;;;16.90;99.90;;;;;;4866904;29;20024;-86
2022/04/23 06:06:04;;;;;;;16.10;7.03;;;17.00;99.90;;;;;;4866702;29;20036;-85
2022/04/23 06:08:30;;;;;;;18.42;7.35;;;17.00;99.90;;;;;;4866899;29;20088;-84
2022/04/23 06:10:57;;;;;;;19.58;8.30;;;16.90;99.90;;;;;;4882210;29;20033;-86
2022/04/23 06:13:23;;;;;;;18.50;6.18;;;17.10;99.90;;;;;;4866798;29;20120;-85
2022/04/23 06:15:49;;;;;;;14.35;4.50;;;17.40;99.90;;;;;;4866433;29;20072;-85
2022/04/23 06:18:16;;;;;;;17.00;4.88;;;17.50;99.90;;;;;;4866192;29;20033;-85
2022/04/23 06:20:42;;;;;;;9.93;3.15;;;17.60;99.90;;;;;;4866363;29;20096;-84
2022/04/23 06:23:08;;;;;;;6.55;2.97;;;17.80;99.90;;;;;;4866376;29;20395;-85
2022/04/23 06:25:35;;;;;;;9.30;2.53;;;18.30;99.90;;;;;;4866351;29;20080;-85
2022/04/23 06:28:02;;;;;;;10.18;2.90;;;18.40;99.90;;;;;;4881861;29;20025;-86
2022/04/23 06:30:32;;;;;;;8.05;3.15;;;18.40;99.90;;;;;;4881925;29;20120;-85
2022/04/23 06:32:58;;;;;;;10.65;3.28;;;18.60;99.90;;;;;;4881862;29;20024;-86
2022/04/23 06:35:25;;;;;;;7.10;2.55;;;19.10;99.90;;;;;;4865935;29;20131;-86
2022/04/23 06:37:55;;;;;;;5.97;2.20;;;19.70;99.90;;;;;;4881569;29;20021;-85
2022/04/23 06:40:21;;;;;;;8.63;3.10;;;19.80;99.90;;;;;;4865973;29;20045;-86
2022/04/23 06:42:48;;;;;;;7.30;2.33;;;19.70;99.90;;;;;;4866149;29;20481;-84
2022/04/23 06:45:19;;;;;;;11.45;2.58;;;19.90;99.90;;;;;;4866507;29;20092;-85
2022/04/23 06:47:45;;;;;;;8.95;2.40;;;20.20;99.90;;;;;;4866038;29;20032;-85
2022/04/23 06:50:12;;;;;;;7.07;2.22;;;20.00;99.90;;;;;;4865817;29;20028;-85
2022/04/23 06:52:39;;;;;;;7.70;1.80;;;19.70;99.90;;;;;;4881594;29;20040;-85
2022/04/23 06:55:06;;;;;;;5.95;1.45;;;20.10;99.90;;;;;;4881326;29;20035;-86
2022/04/23 06:57:42;;;;;;;3.22;1.00;;;20.60;99.90;;;;;;4881138;29;20518;-85
2022/04/23 07:00:11;;;;;;;6.07;0.90;;;21.20;99.90;;;;;;4881202;29;20100;-85
2022/04/23 07:02:37;;;;;;;5.13;0.90;;;22.10;99.90;;;;;;4865958;29;20035;-85
2022/04/23 07:05:05;;;;;;;3.65;1.00;;;22.20;99.90;;;;;;4866002;29;20035;-85
2022/04/23 07:07:33;;;;;;;3.75;0.82;;;22.10;99.90;;;;;;4881348;29;20039;-85
2022/04/23 07:10:00;;;;;;;3.50;0.80;;;22.10;99.90;;;;;;4865832;29;20462;-86
2022/04/23 07:12:27;;;;;;;3.50;1.30;;;22.60;99.90;;;;;;4865561;29;20025;-85
2022/04/23 07:14:54;;;;;;;7.57;0.90;;;23.60;99.90;;;;;;4896894;29;20498;-86
2022/04/23 07:17:24;;;;;;;7.57;1.50;;;23.70;99.90;;;;;;4881581;29;20044;-86
2022/04/23 07:19:53;;;;;;;3.95;0.95;;;23.70;99.90;;;;;;4880894;29;20048;-85
2022/04/23 07:22:20;;;;;;;5.30;1.15;;;23.40;99.90;;;;;;4865561;29;20027;-86
2022/04/23 07:24:50;;;;;;;3.85;1.23;;;24.00;99.90;;;;;;4896873;29;20057;-86
2022/04/23 07:27:18;;;;;;;4.50;0.98;;;24.20;99.90;;;;;;4896679;29;20111;-86
2022/04/23 07:29:44;;;;;;;4.05;0.90;;;25.10;99.90;;;;;;4865503;29;20477;-85
2022/04/23 07:32:11;;;;;;;3.58;0.90;;;24.20;99.90;;;;;;4881306;29;20475;-84
2022/04/23 07:37:28;;;;;;;6.50;0.90;;;24.50;99.90;;;;;;4897558;29;20032;-84
2022/04/23 07:39:59;;;;;;;3.17;1.13;;;24.50;99.90;;;;;;4864981;29;20510;-84
2022/04/23 07:42:29;;;;;;;5.50;1.20;;;25.60;99.90;;;;;;4896292;29;20491;-85
2022/04/23 07:44:55;;;;;;;5.40;1.20;;;25.30;99.90;;;;;;4863882;29;20036;-86
2022/04/23 07:47:22;;;;;;;2.95;1.23;;;26.40;99.90;;;;;;4865073;29;20028;-85
2022/04/23 07:49:48;;;;;;;2.40;0.70;;;27.20;99.90;;;;;;4866890;29;20152;-83
2022/04/23 07:52:15;;;;;;;1.75;0.70;;;26.40;99.90;;;;;;4882689;29;20091;-84
2022/04/23 07:54:43;;;;;;;3.35;1.05;;;25.90;99.90;;;;;;4882535;29;20025;-84
2022/04/23 07:57:11;;;;;;;2.38;0.93;;;25.90;99.90;;;;;;4874745;29;20060;-83
2022/04/23 07:59:42;;;;;;;4.10;1.00;;;25.90;99.90;;;;;;4879094;29;20021;-82
2022/04/23 08:02:10;;;;;;;1.60;0.60;;;25.30;99.90;;;;;;4880374;29;20029;-81
2022/04/23 08:04:36;;;;;;;4.22;0.73;;;25.90;99.90;;;;;;4848180;29;20025;-82
2022/04/23 08:07:03;;;;;;;2.78;0.90;;;25.40;99.90;;;;;;4863574;29;20033;-83
2022/04/23 08:09:29;;;;;;;4.40;1.17;;;25.50;99.90;;;;;;4863638;29;20055;-84
2022/04/23 08:11:56;;;;;;;1.90;0.88;;;24.90;99.90;;;;;;4863730;29;20144;-86
2022/04/23 08:14:22;;;;;;;4.22;0.82;;;24.50;99.90;;;;;;4865453;29;20025;-87
2022/04/23 08:17:17;;;;;;;4.28;1.00;;;24.90;99.90;;;;;;4853248;29;20028;-91
2022/04/23 08:20:36;;;;;;;5.18;0.70;;;25.40;99.90;;;;;;4856360;29;20041;-92
2022/04/23 08:23:06;;;;;;;1.65;0.50;;;25.20;99.90;;;;;;4793534;29;20055;-92
2022/04/23 08:26:05;;;;;;;4.07;1.00;;;24.30;99.90;;;;;;4879969;29;20033;-92
2022/04/23 08:32:21;;;;;;;4.82;1.10;;;22.90;99.90;;;;;;5011791;23;20071;-93
2022/04/23 08:34:53;;;;;;;3.13;0.70;;;22.90;99.90;;;;;;4918685;23;20044;-92
2022/04/23 08:52:46;;;;;;;3.83;0.60;;;22.90;99.90;;;;;;5211903;23;20297;-92
2022/04/23 08:55:18;;;;;;;2.75;0.70;;;22.70;99.90;;;;;;4891952;29;20107;-92
2022/04/23 08:57:46;;;;;;;4.68;0.70;;;23.20;99.90;;;;;;4880886;29;20054;-93
2022/04/23 09:00:24;;;;;;;2.88;1.10;;;23.60;99.90;;;;;;4883022;29;20123;-92
2022/04/23 09:02:52;;;;;;;4.63;0.73;;;23.90;99.90;;;;;;4891716;29;20037;-93
2022/04/23 09:05:19;;;;;;;4.30;0.98;;;24.20;99.90;;;;;;4892329;29;20052;-92
2022/04/23 09:08:03;;;;;;;2.33;0.68;;;24.30;99.90;;;;;;4892329;29;20394;-92
2022/04/23 09:10:54;;;;;;;3.60;0.90;;;24.30;99.90;;;;;;4890102;29;20040;-92
2022/04/23 09:13:47;;;;;;;3.72;0.50;;;23.80;99.90;;;;;;4885452;29;20065;-93
2022/04/23 09:32:34;;;;;;;3.60;0.88;;;22.50;99.90;;;;;;4954769;23;20087;-93
2022/04/23 09:35:30;;;;;;;2.72;0.57;;;22.30;99.90;;;;;;4884931;29;20085;-93
2022/04/23 09:41:24;;;;;;;3.38;0.65;;;22.00;99.90;;;;;;4894739;29;20047;-92
2022/04/23 09:44:07;;;;;;;2.83;1.00;;;22.10;99.90;;;;;;4883376;29;20044;-93
2022/04/23 09:46:49;;;;;;;3.08;0.90;;;22.50;99.90;;;;;;4904455;29;20039;-94
2022/04/23 09:49:25;;;;;;;3.67;0.88;;;22.70;99.90;;;;;;4897952;29;20064;-92
2022/04/23 09:59:35;;;;;;;;;;;;;;;;;;;;;
2022/04/23 10:06:17;;;;;;;1.67;0.68;;;22.00;99.90;;;;;;5235258;23;20059;-93
2022/04/23 10:38:56;;;;;;;2.90;0.57;;;20.80;99.90;;;;;;1920863;23;20423;-92
2022/04/23 10:41:27;;;;;;;2.10;0.63;;;20.60;99.90;;;;;;4867907;29;20052;-92
2022/04/23 10:44:04;;;;;;;1.58;0.60;;;20.60;99.90;;;;;;4883000;29;20112;-92
2022/04/23 10:47:06;;;;;;;6.43;1.60;;;20.60;99.90;;;;;;4886813;29;20056;-93
2022/04/23 11:00:19;;;;;;;4.88;0.88;;;20.90;99.90;;;;;;4957756;23;20063;-93
2022/04/23 11:03:22;;;;;;;3.25;0.88;;;20.70;99.90;;;;;;4893205;29;20048;-93
2022/04/23 11:13:32;;;;;;;;;;;;;;;;;;;;;
2022/04/23 11:16:30;;;;;;;4.90;0.98;;;20.50;99.90;;;;;;4827131;29;20042;-92
2022/04/23 11:19:36;;;;;;;;;;;;;;;;;;;;;
2022/04/23 11:22:04;;;;;;;2.35;0.95;;;20.80;99.90;;;;;;4832456;29;20044;-93
2022/04/23 11:24:32;;;;;;;4.13;1.20;;;20.90;99.90;;;;;;4833340;29;20045;-91
2022/04/23 11:27:03;;;;;;;6.00;0.90;;;20.70;99.90;;;;;;4837457;29;20060;-92
2022/04/23 11:29:34;;;;;;;6.80;1.08;;;20.80;99.90;;;;;;4839551;29;20062;-92
2022/04/23 11:32:01;;;;;;;5.22;0.90;;;20.90;99.90;;;;;;4808784;29;20032;-92
2022/04/23 11:34:28;;;;;;;3.45;1.17;;;20.80;99.90;;;;;;4826999;29;20084;-92
2022/04/23 11:36:56;;;;;;;8.68;1.48;;;20.80;99.90;;;;;;4775092;29;20055;-92
2022/04/23 11:39:30;;;;;;;8.48;1.90;;;20.80;99.90;;;;;;4803332;29;20049;-92
2022/04/23 11:41:57;;;;;;;12.90;1.70;;;20.60;99.90;;;;;;4802438;29;20073;-92
2022/04/23 11:48:01;;;;;;;10.43;1.40;;;20.70;99.90;;;;;;4819323;29;20038;-91
2022/04/23 11:52:04;;;;;;;;;;;;;;;;;;;;;
2022/04/23 11:58:06;;;;;;;11.98;2.10;;;20.90;99.90;;;;;;4797985;29;20043;-93
2022/04/23 12:01:25;;;;;;;11.02;1.70;;;21.00;99.90;;;;;;4785391;30;20137;-92
2022/04/23 12:04:25;;;;;;;8.68;2.00;;;21.00;99.90;;;;;;4703240;30;20068;-92
2022/04/23 12:07:06;;;;;;;9.40;1.75;;;20.90;99.90;;;;;;4713435;30;20042;-92
2022/04/23 12:10:03;;;;;;;20.75;2.20;;;20.70;99.90;;;;;;4738951;30;20032;-93
2022/04/23 12:12:50;;;;;;;13.07;1.70;;;20.60;99.90;;;;;;4743453;30;20048;-93
2022/04/23 12:15:24;;;;;;;8.88;1.95;;;20.50;99.90;;;;;;4742628;30;20040;-93
2022/04/23 12:18:36;;;;;;;13.85;2.13;;;20.50;99.90;;;;;;4762019;30;20419;-93
2022/04/23 12:22:22;;;;;;;12.25;1.90;;;20.50;99.90;;;;;;4749543;30;20060;-92
2022/04/23 12:26:18;;;;;;;;;;;;;;;;;;;;;
2022/04/23 13:10:12;;;;;;;16.95;2.03;;;21.00;99.90;;;;;;4925263;29;20091;-90
2022/04/23 13:12:39;;;;;;;11.02;1.83;;;20.80;99.90;;;;;;4904026;29;20036;-91
2022/04/23 13:15:07;;;;;;;11.73;1.80;;;20.80;99.90;;;;;;4889959;29;20024;-90
2022/04/23 13:17:39;;;;;;;11.50;1.70;;;20.70;99.90;;;;;;4908098;29;20036;-90
2022/04/23 13:20:11;;;;;;;9.35;2.05;;;20.60;99.90;;;;;;4915257;29;20393;-91
2022/04/23 13:22:43;;;;;;;8.57;1.73;;;20.70;99.90;;;;;;4903452;29;20115;-94
2022/04/23 13:25:22;;;;;;;11.48;2.72;;;21.00;99.90;;;;;;4886924;29;20091;-93
2022/04/23 13:27:50;;;;;;;14.35;2.25;;;21.10;99.90;;;;;;4872832;29;20044;-91
2022/04/23 13:30:17;;;;;;;15.43;2.05;;;21.20;99.90;;;;;;4886689;29;20127;-91
2022/04/23 13:32:46;;;;;;;10.32;1.58;;;21.10;99.90;;;;;;4886362;29;20040;-91
2022/04/23 13:35:14;;;;;;;8.55;1.60;;;20.80;99.90;;;;;;4886586;29;20032;-89
2022/04/23 13:37:42;;;;;;;10.48;1.75;;;20.80;99.90;;;;;;4886690;29;20111;-90
2022/04/23 13:40:10;;;;;;;15.63;2.10;;;20.80;99.90;;;;;;4887105;29;20115;-90
2022/04/23 13:42:41;;;;;;;12.25;1.67;;;20.80;99.90;;;;;;4901870;29;20028;-91
2022/04/23 13:45:08;;;;;;;11.98;1.48;;;20.70;99.90;;;;;;4885800;29;20035;-91
2022/04/23 13:47:35;;;;;;;12.88;1.45;;;20.70;99.90;;;;;;4886401;29;20028;-92
2022/04/23 13:50:02;;;;;;;10.90;1.52;;;20.70;99.90;;;;;;4901682;29;20120;-90
2022/04/23 13:52:28;;;;;;;11.07;1.33;;;20.70;99.90;;;;;;4886217;29;20036;-90
2022/04/23 13:54:55;;;;;;;12.18;2.17;;;20.80;99.90;;;;;;4901915;29;20036;-89
2022/04/23 13:57:23;;;;;;;9.57;1.52;;;20.90;99.90;;;;;;4901810;29;20032;-91
2022/04/23 13:59:51;;;;;;;6.00;1.27;;;21.00;99.90;;;;;;4886910;29;20128;-92
2022/04/23 14:10:34;;;;;;;8.77;1.10;;;20.30;99.90;;;;;;4901481;29;20043;-91
2022/04/23 14:13:01;;;;;;;10.73;1.27;;;20.10;99.90;;;;;;4885942;29;20024;-92
2022/04/23 14:15:28;;;;;;;8.00;1.40;;;20.10;99.90;;;;;;4917102;29;20200;-89
2022/04/23 14:17:56;;;;;;;9.07;1.50;;;20.10;99.90;;;;;;4885969;29;20175;-93
2022/04/23 14:20:23;;;;;;;4.13;0.93;;;20.10;99.90;;;;;;4917200;29;20039;-92
2022/04/23 14:22:49;;;;;;;7.18;1.13;;;20.10;99.90;;;;;;4886889;29;20028;-91
2022/04/23 14:25:16;;;;;;;8.45;1.15;;;20.00;99.90;;;;;;4887548;29;20036;-92
2022/04/23 14:27:45;;;;;;;7.22;1.40;;;19.90;99.90;;;;;;4901598;29;20119;-90
2022/04/23 14:30:12;;;;;;;4.95;1.25;;;19.90;99.90;;;;;;4886010;29;20036;-89
2022/04/23 14:32:39;;;;;;;4.45;1.20;;;20.00;99.90;;;;;;4900922;29;20079;-90
2022/04/23 14:35:07;;;;;;;9.60;1.70;;;20.00;99.90;;;;;;4885777;29;20498;-91
2022/04/23 14:37:34;;;;;;;5.63;1.52;;;20.00;99.90;;;;;;4886087;29;20047;-94
2022/04/23 14:40:00;;;;;;;7.20;1.23;;;20.00;99.90;;;;;;4917003;29;20458;-91
2022/04/23 14:42:28;;;;;;;6.95;1.33;;;20.10;99.90;;;;;;4885725;29;20487;-90
2022/04/23 14:44:54;;;;;;;4.00;0.75;;;20.10;99.90;;;;;;4885620;29;20044;-90
2022/04/23 14:47:20;;;;;;;4.28;1.27;;;20.10;99.90;;;;;;4885579;29;20028;-91
2022/04/23 14:49:47;;;;;;;5.50;1.13;;;20.10;99.90;;;;;;4901268;29;20036;-91
2022/04/23 14:55:04;;;;;;;3.25;1.10;;;19.90;99.90;;;;;;4901063;29;20092;-91
2022/04/23 14:57:30;;;;;;;4.07;1.02;;;20.00;99.90;;;;;;4920598;29;20119;-90
2022/04/23 14:59:57;;;;;;;7.30;1.63;;;19.90;99.90;;;;;;4889683;29;20032;-90
2022/04/23 15:02:24;;;;;;;3.25;1.15;;;19.90;99.90;;;;;;4899667;29;20487;-91
2022/04/23 15:04:50;;;;;;;4.03;0.98;;;19.90;99.90;;;;;;4870645;29;20036;-89
2022/04/23 15:07:20;;;;;;;5.32;1.05;;;19.90;99.90;;;;;;4901893;29;20064;-90
2022/04/23 15:09:47;;;;;;;6.68;0.88;;;19.90;99.90;;;;;;4870497;29;20068;-89
2022/04/23 15:12:14;;;;;;;3.35;1.00;;;19.90;99.90;;;;;;4886204;29;20037;-90
2022/04/23 15:14:40;;;;;;;4.22;1.05;;;19.90;99.90;;;;;;4870465;29;20032;-91
2022/04/23 15:17:07;;;;;;;1.80;0.65;;;19.90;99.90;;;;;;4870606;29;20123;-93
2022/04/23 15:19:33;;;;;;;4.75;0.90;;;19.80;99.90;;;;;;4886032;29;20088;-90
2022/04/23 15:22:00;;;;;;;3.35;0.70;;;19.80;99.90;;;;;;4876772;29;20033;-92
2022/04/23 15:24:27;;;;;;;1.95;0.60;;;19.80;99.90;;;;;;4917391;29;20068;-91
2022/04/23 15:26:56;;;;;;;2.92;0.65;;;19.80;99.90;;;;;;4871977;29;20035;-92
2022/04/23 15:29:23;;;;;;;5.07;0.65;;;19.70;99.90;;;;;;4870246;29;20033;-91
2022/04/23 15:31:49;;;;;;;2.92;0.85;;;19.70;99.90;;;;;;4870544;29;20119;-90
2022/04/23 15:34:16;;;;;;;7.20;0.93;;;19.70;99.90;;;;;;4870068;29;20080;-93
2022/04/23 15:36:43;;;;;;;4.75;1.10;;;19.70;99.90;;;;;;4870072;29;20039;-90
2022/04/23 15:39:10;;;;;;;3.85;1.42;;;19.70;99.90;;;;;;4901142;29;20039;-91
2022/04/23 15:41:37;;;;;;;5.97;0.68;;;19.60;99.90;;;;;;4870137;29;20099;-94
2022/04/23 15:44:04;;;;;;;2.30;0.80;;;19.60;99.90;;;;;;4901101;29;20494;-91
2022/04/23 15:46:30;;;;;;;4.50;0.80;;;19.70;99.90;;;;;;4869894;29;20163;-91